Česky Dansk Deutsch English Español Suomi Français Magyar Italiano Nederlands norsk Polski Português svenska Türkçe

 

Het Weer

Noervenich (Duitsland)

23:20, 18 augustus 2016 (GMT)

NWNNE
WE
SWSSE
Home            
Noervenich Aachen / Merzbruck Koeln / Bonn Monchengladbach Geilenkirchen Duesseldorf Elsenborn Brueggen Maastricht Airport Zuid Limburg Spa / La Sauveniere Essen Mendig Buechel Genk Bierset Kleine Brogel Laarbruch Niederrhein Spangdahlem Hessen Dortmund / Wickede Sint-Truiden Kalkar

Om een weerknop op uw website of weblog te plaatsen, copieer onderstaande code en plak die in uw pagina. In het eerste vakje staat HTML-code, in het tweede vakje UBB-code.


Add to Google

Details

Wind speed:2 bf, 6 kn, 3.1 m/s, 6.9 miles/h, 11.1 km/h
Wind direction:W, 270°
Visibility:Greater than 10000 m, 10 km, 32800 ft, 6.2 miles
Temperature:16°C, 61°F
Dew-point:13°C, 55°F
Atmospheric pressure:1010 hPa, 757.6 mmHg, 29.83 inHg, 0.997 atm
Relative humidity:82.4 %
METAR:ETNN 182320Z 27006KT 9999 16/13 Q1010 BLU+

Snelkoppelingen

Actuele weersinformatie van de hele wereld. Voeg locaties toe met het plus (+) symbool. Deze snelkoppelingen kunnen worden toegevoegd aan Google.

Lid van de Technetium groep

website free tracking
StatCounter NetStat W3C Validator

16-08-2018 07:47:52
astro.technetium.be money.technetium.be phote.technetium.be tafeltennistafel.technetium.be www.ligfiets.net